createdAt,value
2023-03-29T00:01:35.105Z,100874.42
2023-03-29T00:04:05.090Z,100872.52
2023-03-29T00:06:36.071Z,100873.36
2023-03-29T00:09:10.049Z,100877.55
2023-03-29T00:11:45.778Z,100875.75
2023-03-29T00:14:17.004Z,100874.00
2023-03-29T00:16:47.125Z,100875.52
2023-03-29T00:19:15.744Z,100873.84
2023-03-29T00:21:46.691Z,100876.04
2023-03-29T00:24:14.842Z,100872.00
2023-03-29T00:26:43.226Z,100871.86
2023-03-29T00:29:16.458Z,100875.56
2023-03-29T00:31:53.908Z,100874.55
2023-03-29T00:34:28.474Z,100876.14
2023-03-29T00:36:59.462Z,100875.13
2023-03-29T00:39:28.066Z,100870.73
2023-03-29T00:42:02.767Z,100871.51
2023-03-29T00:45:08.330Z,100870.85
2023-03-29T00:47:57.117Z,100864.49
2023-03-29T00:50:41.912Z,100860.41
2023-03-29T00:53:19.239Z,100865.06
2023-03-29T00:56:11.216Z,100860.38
2023-03-29T00:58:52.371Z,100859.66
2023-03-29T01:01:28.759Z,100854.41
2023-03-29T01:04:33.975Z,100853.42
2023-03-29T01:07:03.901Z,100850.09
2023-03-29T01:09:34.776Z,100844.84
2023-03-29T01:12:17.253Z,100837.48
2023-03-29T01:15:04.257Z,100836.95
2023-03-29T01:17:35.346Z,100831.11
2023-03-29T01:20:42.323Z,100828.90
2023-03-29T01:23:22.246Z,100828.84
2023-03-29T01:26:03.169Z,100828.51
2023-03-29T01:29:06.892Z,100824.56
2023-03-29T01:31:42.495Z,100822.03
2023-03-29T01:34:22.962Z,100823.07
2023-03-29T01:37:00.411Z,100823.16
2023-03-29T01:39:28.634Z,100822.59
2023-03-29T01:42:02.852Z,100821.42
2023-03-29T01:44:38.154Z,100814.55
2023-03-29T01:47:23.602Z,100819.07
2023-03-29T01:49:59.653Z,100821.02
2023-03-29T01:52:38.556Z,100819.01
2023-03-29T01:55:20.279Z,100815.94
2023-03-29T01:57:52.219Z,100814.79
2023-03-29T02:00:25.874Z,100815.17
2023-03-29T02:03:01.460Z,100815.43
2023-03-29T02:05:33.742Z,100812.92
2023-03-29T02:08:05.558Z,100813.59
2023-03-29T02:10:34.527Z,100817.36
2023-03-29T02:13:05.692Z,100814.88
2023-03-29T02:15:35.027Z,100816.81
2023-03-29T02:18:08.696Z,100816.98
2023-03-29T02:20:40.690Z,100819.55
2023-03-29T02:23:14.583Z,100813.91
2023-03-29T02:25:46.704Z,100815.66
2023-03-29T02:28:14.929Z,100813.85
2023-03-29T02:31:01.277Z,100812.38
2023-03-29T02:33:53.637Z,100806.17
2023-03-29T02:36:27.106Z,100799.54
2023-03-29T02:39:05.870Z,100798.27
2023-03-29T02:41:38.467Z,100794.70
2023-03-29T02:44:12.252Z,100795.56
2023-03-29T02:46:52.106Z,100790.86
2023-03-29T02:49:20.512Z,100788.15
2023-03-29T02:51:56.854Z,100785.44
2023-03-29T02:54:31.615Z,100779.22
2023-03-29T02:57:07.752Z,100777.02
2023-03-29T02:59:38.526Z,100771.77
2023-03-29T03:02:07.334Z,100764.64
2023-03-29T03:04:36.235Z,100770.28
2023-03-29T03:07:09.864Z,100766.14
2023-03-29T03:09:38.074Z,100767.45
2023-03-29T03:12:07.677Z,100764.10
2023-03-29T03:14:36.521Z,100764.40
2023-03-29T03:17:05.046Z,100763.30
2023-03-29T03:19:46.166Z,100757.52
2023-03-29T03:22:16.743Z,100753.03
2023-03-29T03:24:46.189Z,100752.91
2023-03-29T03:27:20.098Z,100748.86
2023-03-29T03:29:48.739Z,100749.67
2023-03-29T03:32:46.627Z,100745.28
2023-03-29T03:35:33.855Z,100746.88
2023-03-29T03:38:15.064Z,100736.38
2023-03-29T03:40:44.218Z,100738.73
2023-03-29T03:43:12.822Z,100734.23
2023-03-29T03:45:52.565Z,100725.66
2023-03-29T03:48:29.042Z,100720.36
2023-03-29T03:51:07.570Z,100724.77
2023-03-29T03:53:37.130Z,100727.73
2023-03-29T03:56:39.968Z,100723.88
2023-03-29T03:59:16.231Z,100719.88
2023-03-29T04:02:05.416Z,100721.83
2023-03-29T04:04:47.901Z,100720.58
2023-03-29T04:07:19.565Z,100717.77
2023-03-29T04:10:03.356Z,100724.83
2023-03-29T04:12:53.634Z,100718.44
2023-03-29T04:15:26.670Z,100720.26
2023-03-29T04:18:01.085Z,100718.12
2023-03-29T04:20:37.198Z,100713.33
2023-03-29T04:23:05.771Z,100723.15
2023-03-29T04:25:40.960Z,100717.93
2023-03-29T04:28:34.486Z,100721.83
2023-03-29T04:31:26.140Z,100722.73
2023-03-29T04:34:17.025Z,100722.27
2023-03-29T04:36:53.142Z,100722.59
2023-03-29T04:39:34.100Z,100724.33
2023-03-29T04:42:12.536Z,100719.28
2023-03-29T04:44:42.713Z,100717.86
2023-03-29T04:47:14.814Z,100720.52
2023-03-29T04:49:53.615Z,100721.86
2023-03-29T04:52:33.581Z,100716.86
2023-03-29T04:55:03.941Z,100719.98
2023-03-29T04:57:53.726Z,100717.39
2023-03-29T05:00:29.055Z,100715.13
2023-03-29T05:03:04.418Z,100711.64
2023-03-29T05:05:34.658Z,100710.88
2023-03-29T05:08:03.739Z,100700.08
2023-03-29T05:10:43.455Z,100700.59
2023-03-29T05:13:15.028Z,100703.17
2023-03-29T05:15:43.541Z,100707.39
2023-03-29T05:18:14.502Z,100704.95
2023-03-29T05:20:53.148Z,100700.61
2023-03-29T05:23:22.019Z,100695.05
2023-03-29T05:26:10.038Z,100700.84
2023-03-29T05:28:39.491Z,100698.34
2023-03-29T05:31:08.721Z,100693.95
2023-03-29T05:33:39.602Z,100694.10
2023-03-29T05:36:13.843Z,100692.20
2023-03-29T05:38:50.044Z,100699.91
2023-03-29T05:41:19.412Z,100696.27
2023-03-29T05:43:59.357Z,100688.92
2023-03-29T05:46:27.910Z,100690.77
2023-03-29T05:49:03.138Z,100683.09
2023-03-29T05:51:45.911Z,100682.14
2023-03-29T05:54:16.950Z,100675.96
2023-03-29T05:56:44.983Z,100677.73
2023-03-29T05:59:13.883Z,100680.47
2023-03-29T06:01:42.787Z,100679.71
2023-03-29T06:04:12.644Z,100685.69
2023-03-29T06:06:46.626Z,100679.77
2023-03-29T06:09:23.985Z,100683.61
2023-03-29T06:12:01.892Z,100683.36
2023-03-29T06:14:48.246Z,100674.13
2023-03-29T06:17:36.523Z,100668.25
2023-03-29T06:20:11.625Z,100667.61
2023-03-29T06:22:41.980Z,100668.83
2023-03-29T06:25:12.473Z,100669.41
2023-03-29T06:27:41.369Z,100669.88
2023-03-29T06:30:15.480Z,100671.10
2023-03-29T06:32:57.982Z,100667.39
2023-03-29T06:35:52.716Z,100667.35
2023-03-29T06:38:31.349Z,100662.36
2023-03-29T06:41:18.149Z,100656.98
2023-03-29T06:43:57.831Z,100657.62
2023-03-29T06:46:32.931Z,100656.57
2023-03-29T06:49:28.552Z,100649.50
2023-03-29T06:52:15.819Z,100652.25
2023-03-29T06:54:46.769Z,100655.11
2023-03-29T06:57:15.157Z,100658.35
2023-03-29T06:59:43.456Z,100658.44
2023-03-29T07:02:18.417Z,100655.17
2023-03-29T07:04:49.469Z,100654.34
2023-03-29T07:07:44.071Z,100654.02
2023-03-29T07:10:26.456Z,100653.38
2023-03-29T07:13:13.445Z,100654.52
2023-03-29T07:15:42.378Z,100653.38
2023-03-29T07:18:28.552Z,100654.94
2023-03-29T07:20:57.359Z,100658.26
2023-03-29T07:23:25.442Z,100655.77
2023-03-29T07:25:54.184Z,100654.86
2023-03-29T07:28:22.763Z,100658.52
2023-03-29T07:30:53.101Z,100655.78
2023-03-29T07:33:22.469Z,100652.13
2023-03-29T07:35:56.203Z,100651.96
2023-03-29T07:38:25.238Z,100647.14
2023-03-29T07:41:04.275Z,100650.27
2023-03-29T07:43:46.780Z,100646.40
2023-03-29T07:46:17.250Z,100647.14
2023-03-29T07:48:45.294Z,100643.34
2023-03-29T07:51:16.291Z,100644.45
2023-03-29T07:53:49.908Z,100639.31
2023-03-29T07:56:38.575Z,100645.29
2023-03-29T07:59:19.100Z,100641.33
2023-03-29T13:02:39.463Z,100339.02
2023-03-29T13:05:29.234Z,100328.75
2023-03-29T13:07:57.239Z,100335.50
2023-03-29T13:10:38.303Z,100334.05
2023-03-29T13:13:27.976Z,100337.03
2023-03-29T13:15:56.908Z,100332.77
2023-03-29T13:19:02.656Z,100331.78
2023-03-29T13:21:52.490Z,100329.16
2023-03-29T13:24:33.596Z,100331.23
2023-03-29T13:27:21.598Z,100333.91
2023-03-29T13:30:00.881Z,100349.23
2023-03-29T13:32:47.381Z,100348.11
2023-03-29T13:35:27.799Z,100340.55
2023-03-29T13:38:18.028Z,100341.20
2023-03-29T13:41:08.325Z,100326.79
2023-03-29T13:43:56.839Z,100315.41
2023-03-29T13:46:41.101Z,100325.33
2023-03-29T13:49:17.324Z,100321.77
2023-03-29T13:52:17.826Z,100320.48
2023-03-29T13:55:25.211Z,100313.19
2023-03-29T13:58:17.629Z,100309.39
2023-03-29T14:00:56.064Z,100309.09
2023-03-29T14:03:29.928Z,100311.27
2023-03-29T14:06:00.833Z,100306.73
2023-03-29T14:08:39.913Z,100310.07
2023-03-29T14:11:18.907Z,100308.52
2023-03-29T14:13:47.490Z,100307.64
2023-03-29T14:16:16.006Z,100306.65
2023-03-29T14:18:46.403Z,100305.90
2023-03-29T14:21:15.042Z,100307.11
2023-03-29T14:23:45.426Z,100310.52
2023-03-29T14:26:19.055Z,100302.31
2023-03-29T14:28:56.699Z,100301.98
2023-03-29T14:31:26.902Z,100299.15
2023-03-29T14:33:56.681Z,100300.86
2023-03-29T14:36:26.442Z,100296.98
2023-03-29T14:38:59.653Z,100286.63
2023-03-29T14:41:31.730Z,100289.43
2023-03-29T14:43:59.494Z,100285.92
2023-03-29T14:46:27.578Z,100288.05
2023-03-29T14:48:56.640Z,100286.27
2023-03-29T14:51:30.535Z,100275.54
2023-03-29T14:54:01.057Z,100271.10
2023-03-29T14:56:29.461Z,100259.08
2023-03-29T14:58:57.609Z,100263.99
2023-03-29T15:01:26.965Z,100257.91
2023-03-29T15:04:02.510Z,100259.75
2023-03-29T15:06:30.918Z,100260.71
2023-03-29T15:09:06.503Z,100258.23
2023-03-29T15:11:35.858Z,100258.16
2023-03-29T15:14:09.498Z,100259.17
2023-03-29T15:16:41.278Z,100271.19
2023-03-29T15:19:27.514Z,100264.77
2023-03-29T15:21:55.640Z,100264.05
2023-03-29T15:24:32.138Z,100265.14
2023-03-29T15:27:11.176Z,100261.70
2023-03-29T15:29:42.390Z,100259.94
2023-03-29T15:32:20.575Z,100256.42
2023-03-29T15:34:59.239Z,100259.90
2023-03-29T15:37:27.905Z,100261.94
2023-03-29T15:39:56.469Z,100266.61
2023-03-29T15:42:25.865Z,100274.41
2023-03-29T15:44:56.196Z,100273.74
2023-03-29T15:47:24.475Z,100272.25
2023-03-29T15:49:53.050Z,100270.23
2023-03-29T15:52:21.581Z,100264.60
2023-03-29T15:54:49.512Z,100273.55
2023-03-29T15:57:17.890Z,100275.58
2023-03-29T15:59:46.284Z,100272.79
2023-03-29T16:02:20.317Z,100272.44
2023-03-29T16:04:48.458Z,100276.13
2023-03-29T16:07:18.125Z,100273.37
2023-03-29T16:09:46.312Z,100268.83
2023-03-29T16:12:16.300Z,100259.58
2023-03-29T16:14:44.252Z,100253.16
2023-03-29T16:17:12.414Z,100247.96
2023-03-29T16:19:40.490Z,100256.19
2023-03-29T16:22:08.468Z,100256.63
2023-03-29T16:24:36.630Z,100256.91
2023-03-29T16:27:04.822Z,100258.42
2023-03-29T16:29:32.990Z,100254.89
2023-03-29T16:32:01.278Z,100257.11
2023-03-29T16:34:30.135Z,100256.45
2023-03-29T16:36:58.197Z,100249.41
2023-03-29T16:39:26.185Z,100246.92
2023-03-29T16:41:54.537Z,100249.48
2023-03-29T16:44:24.365Z,100251.15
2023-03-29T16:46:54.471Z,100248.23
2023-03-29T16:49:24.261Z,100244.69
2023-03-29T16:51:52.161Z,100246.52
2023-03-29T16:54:20.225Z,100250.17
2023-03-29T16:56:48.250Z,100254.33
2023-03-29T16:59:19.087Z,100252.71
2023-03-29T17:01:47.728Z,100250.50
2023-03-29T17:04:16.084Z,100249.44
2023-03-29T17:06:44.130Z,100249.44
2023-03-29T17:09:12.245Z,100242.13
2023-03-29T17:11:41.427Z,100236.05
2023-03-29T17:14:12.353Z,100232.84
2023-03-29T17:16:40.622Z,100235.14
2023-03-29T17:19:08.628Z,100234.88
2023-03-29T17:21:38.774Z,100232.48
2023-03-29T17:24:07.321Z,100231.83
2023-03-29T17:26:38.575Z,100227.11
2023-03-29T17:29:06.536Z,100225.02
2023-03-29T17:31:36.290Z,100226.63
2023-03-29T17:34:04.476Z,100228.57
2023-03-29T17:36:33.818Z,100227.67
2023-03-29T17:39:02.885Z,100226.23
2023-03-29T17:41:31.474Z,100228.60
2023-03-29T17:43:59.887Z,100230.65
2023-03-29T17:46:28.736Z,100233.30
2023-03-29T17:48:59.304Z,100236.66
2023-03-29T17:51:28.172Z,100234.65
2023-03-29T17:53:57.658Z,100239.62
2023-03-29T17:56:27.063Z,100237.23
2023-03-29T17:58:56.376Z,100238.77
2023-03-29T18:01:27.574Z,100237.59
2023-03-29T18:03:59.605Z,100236.42
2023-03-29T18:06:32.255Z,100239.34
2023-03-29T18:09:01.984Z,100240.31
2023-03-29T18:11:32.598Z,100240.84
2023-03-29T18:14:01.609Z,100245.06
2023-03-29T18:16:31.263Z,100249.69
2023-03-29T18:19:03.164Z,100252.10
2023-03-29T18:21:32.188Z,100250.40
2023-03-29T18:24:01.521Z,100254.11
2023-03-29T18:26:30.540Z,100258.38
2023-03-29T18:28:59.063Z,100253.23
2023-03-29T18:31:28.210Z,100253.13
2023-03-29T18:33:56.333Z,100245.79
2023-03-29T18:36:25.750Z,100244.23
2023-03-29T18:38:55.773Z,100248.49
2023-03-29T18:41:23.948Z,100248.82
2023-03-29T18:43:52.151Z,100248.23
2023-03-29T18:46:20.521Z,100247.14
2023-03-29T18:48:48.576Z,100244.20
2023-03-29T18:51:16.930Z,100245.42
2023-03-29T18:53:45.573Z,100245.44
2023-03-29T18:56:13.752Z,100246.27
2023-03-29T18:58:41.860Z,100244.06
2023-03-29T19:01:10.950Z,100238.98
2023-03-29T19:03:38.875Z,100236.58
2023-03-29T19:06:09.822Z,100233.46
2023-03-29T19:08:40.577Z,100234.80
2023-03-29T19:11:11.491Z,100236.11
2023-03-29T19:13:40.506Z,100230.23
2023-03-29T19:16:09.430Z,100227.15
2023-03-29T19:18:37.991Z,100226.98
2023-03-29T19:21:06.552Z,100231.94
2023-03-29T19:23:37.565Z,100233.70
2023-03-29T19:26:06.269Z,100232.07
2023-03-29T19:28:34.620Z,100228.35
2023-03-29T19:31:03.387Z,100225.93
2023-03-29T19:33:31.780Z,100223.01
2023-03-29T19:35:59.683Z,100219.73
2023-03-29T19:38:30.235Z,100218.35
2023-03-29T19:40:58.026Z,100214.27
2023-03-29T19:43:26.492Z,100215.66
2023-03-29T19:45:54.598Z,100213.39
2023-03-29T19:48:24.348Z,100212.52
2023-03-29T19:50:52.909Z,100215.82
2023-03-29T19:53:21.257Z,100214.75
2023-03-29T19:55:52.498Z,100210.20
2023-03-29T19:58:20.718Z,100209.66
2023-03-29T20:00:50.885Z,100208.62
2023-03-29T20:03:21.775Z,100209.44
2023-03-29T20:05:49.685Z,100207.75
2023-03-29T20:08:17.744Z,100201.61
2023-03-29T20:10:45.583Z,100200.30
2023-03-29T20:13:14.579Z,100198.13
2023-03-29T20:15:47.052Z,100196.52
2023-03-29T20:18:14.957Z,100200.55
2023-03-29T20:20:44.686Z,100200.10
2023-03-29T20:23:12.934Z,100198.86
2023-03-29T20:25:41.023Z,100202.94
2023-03-29T20:28:12.873Z,100200.18
2023-03-29T20:30:41.447Z,100196.26
2023-03-29T20:33:09.366Z,100197.59
2023-03-29T20:35:37.384Z,100194.46
2023-03-29T20:38:14.778Z,100192.40
2023-03-29T20:40:42.861Z,100190.80
2023-03-29T20:43:13.421Z,100185.88
2023-03-29T20:45:52.616Z,100188.15
2023-03-29T20:48:24.256Z,100182.45
2023-03-29T20:50:52.318Z,100178.85
2023-03-29T20:53:23.012Z,100177.09
2023-03-29T20:56:00.187Z,100173.72
2023-03-29T20:58:29.100Z,100174.07
2023-03-29T21:00:59.820Z,100171.14
2023-03-29T21:03:27.767Z,100168.60
2023-03-29T21:05:55.738Z,100166.66
2023-03-29T21:08:29.873Z,100166.27
2023-03-29T21:10:57.876Z,100160.79
2023-03-29T21:13:25.889Z,100154.32
2023-03-29T21:15:53.795Z,100153.98
2023-03-29T21:18:23.499Z,100150.99
2023-03-29T21:20:54.772Z,100147.90
2023-03-29T21:23:22.826Z,100146.86
2023-03-29T21:25:51.201Z,100141.16
2023-03-29T21:28:21.958Z,100144.64
2023-03-29T21:30:50.097Z,100143.71
2023-03-29T21:33:18.014Z,100138.50
2023-03-29T21:35:49.135Z,100134.65
2023-03-29T21:38:17.369Z,100134.30
2023-03-29T21:40:45.451Z,100132.03
2023-03-29T21:43:13.340Z,100125.23
2023-03-29T21:45:41.428Z,100126.06
2023-03-29T21:48:09.511Z,100127.00
2023-03-29T21:50:37.518Z,100118.98
2023-03-29T21:53:05.325Z,100123.73
2023-03-29T21:55:36.220Z,100121.52
2023-03-29T21:58:04.938Z,100118.20
2023-03-29T22:00:33.140Z,100118.65
2023-03-29T22:03:01.137Z,100120.25
2023-03-29T22:05:29.128Z,100119.98
2023-03-29T22:07:58.850Z,100116.61
2023-03-29T22:10:27.434Z,100112.00
2023-03-29T22:12:57.138Z,100105.48
2023-03-29T22:15:24.985Z,100099.78
2023-03-29T22:17:53.444Z,100097.58
2023-03-29T22:20:22.433Z,100091.37
2023-03-29T22:22:51.109Z,100087.94
2023-03-29T22:25:19.791Z,100087.60
2023-03-29T22:27:48.813Z,100083.74
2023-03-29T22:30:17.354Z,100082.13
2023-03-29T22:32:45.523Z,100078.58
2023-03-29T22:35:13.613Z,100080.20
2023-03-29T22:37:45.670Z,100080.41
2023-03-29T22:40:14.060Z,100081.30
2023-03-29T22:42:41.923Z,100077.42
2023-03-29T22:45:10.520Z,100080.85
2023-03-29T22:47:38.458Z,100080.34
2023-03-29T22:50:07.414Z,100076.36
2023-03-29T22:52:35.461Z,100075.75
2023-03-29T22:55:06.553Z,100073.37
2023-03-29T22:57:34.669Z,100064.89
2023-03-29T23:00:09.493Z,100064.56
2023-03-29T23:02:37.805Z,100064.79
2023-03-29T23:05:06.421Z,100058.64
2023-03-29T23:07:36.518Z,100058.69
2023-03-29T23:10:06.461Z,100055.14
2023-03-29T23:12:36.266Z,100053.93
2023-03-29T23:15:08.087Z,100053.81
2023-03-29T23:17:37.370Z,100050.05
2023-03-29T23:20:06.119Z,100049.83
2023-03-29T23:22:36.245Z,100053.82
2023-03-29T23:25:04.552Z,100051.66
2023-03-29T23:27:33.158Z,100051.21
2023-03-29T23:30:01.734Z,100045.89
2023-03-29T23:32:29.900Z,100041.58
2023-03-29T23:34:58.048Z,100041.14
2023-03-29T23:37:26.157Z,100039.48
2023-03-29T23:39:54.167Z,100039.20
2023-03-29T23:42:22.597Z,100043.13
2023-03-29T23:44:51.223Z,100036.26
2023-03-29T23:47:19.493Z,100032.94
2023-03-29T23:49:47.784Z,100031.05
2023-03-29T23:52:15.603Z,100026.90
2023-03-29T23:54:43.416Z,100024.14
2023-03-29T23:57:11.404Z,100021.77
2023-03-29T23:59:40.110Z,100017.95
